sensor_id;sensor_type;location;lat;lon;timestamp;P1;durP1;ratioP1;P2;durP2;ratioP2
50779;SDS011;36748;37.428;-121.972;2023-02-28T00:00:20;0.60;;;0.50;;
50779;SDS011;36748;37.428;-121.972;2023-02-28T00:02:47;0.30;;;0.30;;
50779;SDS011;36748;37.428;-121.972;2023-02-28T00:05:15;0.70;;;0.30;;
50779;SDS011;36748;37.428;-121.972;2023-02-28T00:07:44;0.43;;;0.20;;
50779;SDS011;36748;37.428;-121.972;2023-02-28T00:10:15;1.10;;;0.40;;
50779;SDS011;36748;37.428;-121.972;2023-02-28T00:12:46;0.77;;;0.30;;
50779;SDS011;36748;37.428;-121.972;2023-02-28T00:15:14;0.52;;;0.22;;
50779;SDS011;36748;37.428;-121.972;2023-02-28T00:17:40;0.90;;;0.30;;
50779;SDS011;36748;37.428;-121.972;2023-02-28T00:20:07;0.52;;;0.40;;
50779;SDS011;36748;37.428;-121.972;2023-02-28T00:22:38;0.70;;;0.30;;
50779;SDS011;36748;37.428;-121.972;2023-02-28T00:25:06;0.60;;;0.30;;
50779;SDS011;36748;37.428;-121.972;2023-02-28T00:27:34;0.82;;;0.32;;
50779;SDS011;36748;37.428;-121.972;2023-02-28T00:30:01;0.75;;;0.30;;
50779;SDS011;36748;37.428;-121.972;2023-02-28T00:32:29;0.20;;;0.20;;
50779;SDS011;36748;37.428;-121.972;2023-02-28T00:34:55;0.25;;;0.20;;
50779;SDS011;36748;37.428;-121.972;2023-02-28T00:37:22;0.25;;;0.20;;
50779;SDS011;36748;37.428;-121.972;2023-02-28T00:39:48;0.10;;;0.10;;
50779;SDS011;36748;37.428;-121.972;2023-02-28T00:42:14;0.10;;;0.10;;
50779;SDS011;36748;37.428;-121.972;2023-02-28T00:44:40;0.10;;;0.10;;
50779;SDS011;36748;37.428;-121.972;2023-02-28T00:47:07;0.55;;;0.20;;
50779;SDS011;36748;37.428;-121.972;2023-02-28T00:49:33;0.22;;;0.13;;
50779;SDS011;36748;37.428;-121.972;2023-02-28T00:51:59;0.10;;;0.10;;
50779;SDS011;36748;37.428;-121.972;2023-02-28T00:54:25;0.10;;;0.10;;
50779;SDS011;36748;37.428;-121.972;2023-02-28T00:56:52;0.20;;;0.20;;
50779;SDS011;36748;37.428;-121.972;2023-02-28T00:59:18;0.63;;;0.30;;
50779;SDS011;36748;37.428;-121.972;2023-02-28T01:01:45;0.40;;;0.30;;
50779;SDS011;36748;37.428;-121.972;2023-02-28T01:04:12;0.25;;;0.17;;
50779;SDS011;36748;37.428;-121.972;2023-02-28T01:06:38;0.32;;;0.22;;
50779;SDS011;36748;37.428;-121.972;2023-02-28T01:09:05;1.05;;;0.20;;
50779;SDS011;36748;37.428;-121.972;2023-02-28T01:11:32;0.98;;;0.30;;
50779;SDS011;36748;37.428;-121.972;2023-02-28T01:13:59;0.20;;;0.20;;
50779;SDS011;36748;37.428;-121.972;2023-02-28T01:16:26;0.77;;;0.43;;
50779;SDS011;36748;37.428;-121.972;2023-02-28T01:18:53;0.20;;;0.20;;
50779;SDS011;36748;37.428;-121.972;2023-02-28T01:21:19;0.20;;;0.10;;
50779;SDS011;36748;37.428;-121.972;2023-02-28T01:23:47;0.35;;;0.20;;
50779;SDS011;36748;37.428;-121.972;2023-02-28T01:26:14;0.98;;;0.20;;
50779;SDS011;36748;37.428;-121.972;2023-02-28T01:28:42;0.38;;;0.38;;
50779;SDS011;36748;37.428;-121.972;2023-02-28T01:31:09;1.77;;;0.20;;
50779;SDS011;36748;37.428;-121.972;2023-02-28T01:33:36;0.80;;;0.30;;
50779;SDS011;36748;37.428;-121.972;2023-02-28T01:36:06;0.20;;;0.10;;
50779;SDS011;36748;37.428;-121.972;2023-02-28T01:38:35;0.30;;;0.20;;
50779;SDS011;36748;37.428;-121.972;2023-02-28T01:41:01;0.40;;;0.10;;
50779;SDS011;36748;37.428;-121.972;2023-02-28T01:43:29;0.45;;;0.20;;
50779;SDS011;36748;37.428;-121.972;2023-02-28T01:46:18;0.38;;;0.30;;
50779;SDS011;36748;37.428;-121.972;2023-02-28T01:48:52;0.40;;;0.35;;
50779;SDS011;36748;37.428;-121.972;2023-02-28T01:51:22;0.60;;;0.20;;
50779;SDS011;36748;37.428;-121.972;2023-02-28T01:53:57;0.45;;;0.30;;
50779;SDS011;36748;37.428;-121.972;2023-02-28T01:56:39;0.40;;;0.22;;
50779;SDS011;36748;37.428;-121.972;2023-02-28T01:59:19;0.30;;;0.20;;
50779;SDS011;36748;37.428;-121.972;2023-02-28T02:01:49;0.35;;;0.28;;
50779;SDS011;36748;37.428;-121.972;2023-02-28T02:04:15;0.82;;;0.22;;
50779;SDS011;36748;37.428;-121.972;2023-02-28T02:06:43;0.75;;;0.32;;
50779;SDS011;36748;37.428;-121.972;2023-02-28T02:09:28;0.40;;;0.20;;
50779;SDS011;36748;37.428;-121.972;2023-02-28T02:11:54;0.20;;;0.20;;
50779;SDS011;36748;37.428;-121.972;2023-02-28T02:24:49;0.77;;;0.60;;
50779;SDS011;36748;37.428;-121.972;2023-02-28T02:30:09;0.57;;;0.30;;
50779;SDS011;36748;37.428;-121.972;2023-02-28T02:38:54;0.30;;;0.30;;
50779;SDS011;36748;37.428;-121.972;2023-02-28T02:44:13;0.80;;;0.50;;
50779;SDS011;36748;37.428;-121.972;2023-02-28T02:46:43;0.17;;;0.10;;
50779;SDS011;36748;37.428;-121.972;2023-02-28T02:49:13;0.50;;;0.35;;
50779;SDS011;36748;37.428;-121.972;2023-02-28T02:51:42;0.25;;;0.25;;
50779;SDS011;36748;37.428;-121.972;2023-02-28T02:54:28;0.68;;;0.35;;
50779;SDS011;36748;37.428;-121.972;2023-02-28T02:56:58;0.50;;;0.30;;
50779;SDS011;36748;37.428;-121.972;2023-02-28T02:59:27;0.40;;;0.30;;
50779;SDS011;36748;37.428;-121.972;2023-02-28T03:01:57;0.57;;;0.30;;
50779;SDS011;36748;37.428;-121.972;2023-02-28T03:04:28;0.50;;;0.40;;
50779;SDS011;36748;37.428;-121.972;2023-02-28T03:06:57;0.75;;;0.40;;
50779;SDS011;36748;37.428;-121.972;2023-02-28T03:09:24;0.30;;;0.20;;
50779;SDS011;36748;37.428;-121.972;2023-02-28T03:11:52;0.55;;;0.45;;
50779;SDS011;36748;37.428;-121.972;2023-02-28T03:30:48;0.32;;;0.32;;
50779;SDS011;36748;37.428;-121.972;2023-02-28T03:33:32;0.28;;;0.28;;
50779;SDS011;36748;37.428;-121.972;2023-02-28T03:36:04;0.93;;;0.47;;
50779;SDS011;36748;37.428;-121.972;2023-02-28T03:38:37;0.95;;;0.55;;
50779;SDS011;36748;37.428;-121.972;2023-02-28T03:41:16;0.60;;;0.20;;
50779;SDS011;36748;37.428;-121.972;2023-02-28T03:43:50;0.95;;;0.32;;
50779;SDS011;36748;37.428;-121.972;2023-02-28T03:46:26;0.60;;;0.30;;
50779;SDS011;36748;37.428;-121.972;2023-02-28T03:49:00;0.45;;;0.43;;
50779;SDS011;36748;37.428;-121.972;2023-02-28T03:51:29;0.82;;;0.43;;
50779;SDS011;36748;37.428;-121.972;2023-02-28T03:53:58;0.52;;;0.43;;
50779;SDS011;36748;37.428;-121.972;2023-02-28T03:57:13;0.75;;;0.45;;
50779;SDS011;36748;37.428;-121.972;2023-02-28T03:59:23;0.63;;;0.35;;
50779;SDS011;36748;37.428;-121.972;2023-02-28T04:01:52;0.50;;;0.28;;
50779;SDS011;36748;37.428;-121.972;2023-02-28T04:04:20;0.93;;;0.63;;
50779;SDS011;36748;37.428;-121.972;2023-02-28T04:06:49;1.02;;;0.52;;
50779;SDS011;36748;37.428;-121.972;2023-02-28T04:09:17;1.15;;;0.40;;
50779;SDS011;36748;37.428;-121.972;2023-02-28T04:11:50;0.80;;;0.40;;
50779;SDS011;36748;37.428;-121.972;2023-02-28T04:14:17;0.75;;;0.50;;
50779;SDS011;36748;37.428;-121.972;2023-02-28T04:16:44;0.52;;;0.35;;
50779;SDS011;36748;37.428;-121.972;2023-02-28T04:19:11;0.50;;;0.30;;
50779;SDS011;36748;37.428;-121.972;2023-02-28T04:21:41;1.80;;;0.40;;
50779;SDS011;36748;37.428;-121.972;2023-02-28T04:24:10;1.13;;;0.50;;
50779;SDS011;36748;37.428;-121.972;2023-02-28T04:26:42;1.65;;;0.60;;
50779;SDS011;36748;37.428;-121.972;2023-02-28T04:29:10;0.82;;;0.47;;
50779;SDS011;36748;37.428;-121.972;2023-02-28T04:31:37;0.80;;;0.35;;
50779;SDS011;36748;37.428;-121.972;2023-02-28T04:34:04;1.40;;;0.55;;
50779;SDS011;36748;37.428;-121.972;2023-02-28T04:36:30;0.60;;;0.50;;
50779;SDS011;36748;37.428;-121.972;2023-02-28T04:38:57;0.98;;;0.30;;
50779;SDS011;36748;37.428;-121.972;2023-02-28T04:41:23;1.00;;;0.60;;
50779;SDS011;36748;37.428;-121.972;2023-02-28T04:43:52;1.08;;;0.50;;
50779;SDS011;36748;37.428;-121.972;2023-02-28T04:46:18;0.63;;;0.30;;
50779;SDS011;36748;37.428;-121.972;2023-02-28T04:48:46;1.23;;;0.68;;
50779;SDS011;36748;37.428;-121.972;2023-02-28T04:51:13;0.90;;;0.60;;
50779;SDS011;36748;37.428;-121.972;2023-02-28T04:53:41;0.85;;;0.50;;
50779;SDS011;36748;37.428;-121.972;2023-02-28T04:56:08;1.40;;;0.50;;
50779;SDS011;36748;37.428;-121.972;2023-02-28T04:58:36;1.40;;;0.80;;
50779;SDS011;36748;37.428;-121.972;2023-02-28T05:01:06;0.60;;;0.47;;
50779;SDS011;36748;37.428;-121.972;2023-02-28T05:03:41;1.15;;;0.68;;
50779;SDS011;36748;37.428;-121.972;2023-02-28T05:06:08;2.25;;;0.70;;
50779;SDS011;36748;37.428;-121.972;2023-02-28T05:08:35;1.30;;;0.50;;
50779;SDS011;36748;37.428;-121.972;2023-02-28T05:11:01;1.05;;;0.50;;
50779;SDS011;36748;37.428;-121.972;2023-02-28T05:13:28;0.93;;;0.73;;
50779;SDS011;36748;37.428;-121.972;2023-02-28T05:15:55;0.85;;;0.65;;
50779;SDS011;36748;37.428;-121.972;2023-02-28T05:18:21;1.13;;;0.63;;
50779;SDS011;36748;37.428;-121.972;2023-02-28T05:20:47;0.52;;;0.45;;
50779;SDS011;36748;37.428;-121.972;2023-02-28T05:23:14;1.23;;;0.60;;
50779;SDS011;36748;37.428;-121.972;2023-02-28T05:25:40;1.88;;;0.57;;
50779;SDS011;36748;37.428;-121.972;2023-02-28T05:28:07;0.93;;;0.47;;
50779;SDS011;36748;37.428;-121.972;2023-02-28T05:30:33;1.25;;;0.60;;
50779;SDS011;36748;37.428;-121.972;2023-02-28T05:33:00;1.88;;;0.63;;
50779;SDS011;36748;37.428;-121.972;2023-02-28T05:35:26;0.93;;;0.70;;
50779;SDS011;36748;37.428;-121.972;2023-02-28T05:37:53;0.80;;;0.50;;
50779;SDS011;36748;37.428;-121.972;2023-02-28T05:40:19;1.02;;;0.50;;
50779;SDS011;36748;37.428;-121.972;2023-02-28T05:42:46;2.75;;;0.80;;
50779;SDS011;36748;37.428;-121.972;2023-02-28T05:45:12;0.57;;;0.50;;
50779;SDS011;36748;37.428;-121.972;2023-02-28T05:47:38;1.42;;;0.50;;
50779;SDS011;36748;37.428;-121.972;2023-02-28T05:50:05;1.40;;;0.50;;
50779;SDS011;36748;37.428;-121.972;2023-02-28T05:52:31;1.23;;;0.57;;
50779;SDS011;36748;37.428;-121.972;2023-02-28T05:54:58;0.47;;;0.43;;
50779;SDS011;36748;37.428;-121.972;2023-02-28T05:57:24;0.47;;;0.40;;
50779;SDS011;36748;37.428;-121.972;2023-02-28T05:59:50;1.27;;;0.50;;
50779;SDS011;36748;37.428;-121.972;2023-02-28T06:02:17;0.77;;;0.60;;
50779;SDS011;36748;37.428;-121.972;2023-02-28T06:04:43;0.60;;;0.45;;
50779;SDS011;36748;37.428;-121.972;2023-02-28T06:07:10;0.40;;;0.40;;
50779;SDS011;36748;37.428;-121.972;2023-02-28T06:09:36;0.38;;;0.38;;
50779;SDS011;36748;37.428;-121.972;2023-02-28T06:12:04;0.70;;;0.43;;
50779;SDS011;36748;37.428;-121.972;2023-02-28T06:14:32;0.82;;;0.50;;
50779;SDS011;36748;37.428;-121.972;2023-02-28T06:17:00;1.05;;;0.75;;
50779;SDS011;36748;37.428;-121.972;2023-02-28T06:19:26;0.63;;;0.50;;
50779;SDS011;36748;37.428;-121.972;2023-02-28T06:21:54;0.50;;;0.40;;
50779;SDS011;36748;37.428;-121.972;2023-02-28T06:24:22;0.77;;;0.38;;
50779;SDS011;36748;37.428;-121.972;2023-02-28T06:26:50;0.68;;;0.43;;
50779;SDS011;36748;37.428;-121.972;2023-02-28T06:29:16;0.60;;;0.43;;
50779;SDS011;36748;37.428;-121.972;2023-02-28T06:31:46;0.68;;;0.50;;
50779;SDS011;36748;37.428;-121.972;2023-02-28T06:34:12;0.57;;;0.57;;
50779;SDS011;36748;37.428;-121.972;2023-02-28T06:36:40;0.50;;;0.40;;
50779;SDS011;36748;37.428;-121.972;2023-02-28T06:39:07;0.68;;;0.50;;
50779;SDS011;36748;37.428;-121.972;2023-02-28T06:41:34;0.40;;;0.20;;
50779;SDS011;36748;37.428;-121.972;2023-02-28T06:44:05;1.33;;;0.65;;
50779;SDS011;36748;37.428;-121.972;2023-02-28T06:46:38;1.75;;;0.50;;
50779;SDS011;36748;37.428;-121.972;2023-02-28T06:49:06;0.88;;;0.60;;
50779;SDS011;36748;37.428;-121.972;2023-02-28T06:51:34;1.50;;;0.65;;
50779;SDS011;36748;37.428;-121.972;2023-02-28T06:54:01;0.60;;;0.50;;
50779;SDS011;36748;37.428;-121.972;2023-02-28T06:56:27;0.68;;;0.50;;
50779;SDS011;36748;37.428;-121.972;2023-02-28T06:58:54;1.15;;;0.50;;
50779;SDS011;36748;37.428;-121.972;2023-02-28T07:01:21;0.80;;;0.60;;
50779;SDS011;36748;37.428;-121.972;2023-02-28T07:03:51;0.65;;;0.50;;
50779;SDS011;36748;37.428;-121.972;2023-02-28T07:06:18;0.82;;;0.50;;
50779;SDS011;36748;37.428;-121.972;2023-02-28T07:08:45;1.90;;;0.77;;
50779;SDS011;36748;37.428;-121.972;2023-02-28T07:11:12;1.52;;;0.80;;
50779;SDS011;36748;37.428;-121.972;2023-02-28T07:13:38;1.33;;;0.50;;
50779;SDS011;36748;37.428;-121.972;2023-02-28T07:16:05;0.73;;;0.45;;
50779;SDS011;36748;37.428;-121.972;2023-02-28T07:18:32;0.60;;;0.50;;
50779;SDS011;36748;37.428;-121.972;2023-02-28T07:21:01;1.08;;;0.60;;
50779;SDS011;36748;37.428;-121.972;2023-02-28T07:23:28;1.17;;;0.65;;
50779;SDS011;36748;37.428;-121.972;2023-02-28T07:25:54;0.90;;;0.55;;
50779;SDS011;36748;37.428;-121.972;2023-02-28T07:28:20;0.80;;;0.60;;
50779;SDS011;36748;37.428;-121.972;2023-02-28T07:30:47;1.05;;;0.63;;
50779;SDS011;36748;37.428;-121.972;2023-02-28T07:33:13;1.42;;;0.57;;
50779;SDS011;36748;37.428;-121.972;2023-02-28T07:35:40;0.40;;;0.35;;
50779;SDS011;36748;37.428;-121.972;2023-02-28T07:38:06;0.68;;;0.43;;
50779;SDS011;36748;37.428;-121.972;2023-02-28T07:40:33;1.58;;;0.75;;
50779;SDS011;36748;37.428;-121.972;2023-02-28T07:43:00;1.10;;;0.50;;
50779;SDS011;36748;37.428;-121.972;2023-02-28T07:45:27;0.93;;;0.50;;
50779;SDS011;36748;37.428;-121.972;2023-02-28T07:47:54;1.05;;;0.50;;
50779;SDS011;36748;37.428;-121.972;2023-02-28T07:50:21;0.82;;;0.55;;
50779;SDS011;36748;37.428;-121.972;2023-02-28T07:52:47;1.45;;;0.70;;
50779;SDS011;36748;37.428;-121.972;2023-02-28T07:55:14;1.30;;;0.60;;
50779;SDS011;36748;37.428;-121.972;2023-02-28T07:57:41;0.95;;;0.70;;
50779;SDS011;36748;37.428;-121.972;2023-02-28T08:00:09;0.68;;;0.68;;
50779;SDS011;36748;37.428;-121.972;2023-02-28T08:02:37;0.77;;;0.47;;
50779;SDS011;36748;37.428;-121.972;2023-02-28T08:05:04;1.08;;;0.50;;
50779;SDS011;36748;37.428;-121.972;2023-02-28T08:07:31;1.40;;;0.70;;
50779;SDS011;36748;37.428;-121.972;2023-02-28T08:09:58;0.40;;;0.40;;
50779;SDS011;36748;37.428;-121.972;2023-02-28T08:12:24;0.90;;;0.68;;
50779;SDS011;36748;37.428;-121.972;2023-02-28T08:14:51;0.95;;;0.60;;
50779;SDS011;36748;37.428;-121.972;2023-02-28T08:17:17;0.82;;;0.60;;
50779;SDS011;36748;37.428;-121.972;2023-02-28T08:19:46;1.58;;;0.50;;
50779;SDS011;36748;37.428;-121.972;2023-02-28T08:22:12;0.88;;;0.50;;
50779;SDS011;36748;37.428;-121.972;2023-02-28T08:24:40;0.88;;;0.43;;
50779;SDS011;36748;37.428;-121.972;2023-02-28T08:27:08;0.77;;;0.57;;
50779;SDS011;36748;37.428;-121.972;2023-02-28T08:29:36;1.23;;;0.55;;
50779;SDS011;36748;37.428;-121.972;2023-02-28T08:32:04;0.60;;;0.52;;
50779;SDS011;36748;37.428;-121.972;2023-02-28T08:34:31;2.05;;;0.40;;
50779;SDS011;36748;37.428;-121.972;2023-02-28T08:36:57;1.05;;;0.55;;
50779;SDS011;36748;37.428;-121.972;2023-02-28T08:39:23;0.70;;;0.57;;
50779;SDS011;36748;37.428;-121.972;2023-02-28T08:41:49;1.48;;;0.70;;
50779;SDS011;36748;37.428;-121.972;2023-02-28T08:44:15;0.80;;;0.50;;
50779;SDS011;36748;37.428;-121.972;2023-02-28T08:46:42;2.45;;;0.95;;
50779;SDS011;36748;37.428;-121.972;2023-02-28T08:49:09;1.08;;;0.70;;
50779;SDS011;36748;37.428;-121.972;2023-02-28T08:51:36;0.63;;;0.52;;
50779;SDS011;36748;37.428;-121.972;2023-02-28T08:54:02;0.98;;;0.68;;
50779;SDS011;36748;37.428;-121.972;2023-02-28T08:56:29;2.05;;;1.10;;
50779;SDS011;36748;37.428;-121.972;2023-02-28T08:58:56;1.25;;;0.85;;
50779;SDS011;36748;37.428;-121.972;2023-02-28T09:01:26;0.93;;;0.50;;
50779;SDS011;36748;37.428;-121.972;2023-02-28T09:03:54;0.95;;;0.50;;
50779;SDS011;36748;37.428;-121.972;2023-02-28T09:06:22;1.27;;;0.88;;
50779;SDS011;36748;37.428;-121.972;2023-02-28T09:08:50;1.08;;;0.55;;
50779;SDS011;36748;37.428;-121.972;2023-02-28T09:11:17;1.35;;;0.70;;
50779;SDS011;36748;37.428;-121.972;2023-02-28T09:13:44;0.98;;;0.70;;
50779;SDS011;36748;37.428;-121.972;2023-02-28T09:16:12;2.22;;;1.00;;
50779;SDS011;36748;37.428;-121.972;2023-02-28T09:18:40;1.00;;;0.52;;
50779;SDS011;36748;37.428;-121.972;2023-02-28T09:21:07;1.17;;;0.65;;
50779;SDS011;36748;37.428;-121.972;2023-02-28T09:23:35;1.02;;;0.60;;
50779;SDS011;36748;37.428;-121.972;2023-02-28T09:26:03;0.70;;;0.38;;
50779;SDS011;36748;37.428;-121.972;2023-02-28T09:28:29;0.77;;;0.45;;
50779;SDS011;36748;37.428;-121.972;2023-02-28T09:30:56;1.30;;;0.50;;
50779;SDS011;36748;37.428;-121.972;2023-02-28T09:33:24;1.25;;;0.73;;
50779;SDS011;36748;37.428;-121.972;2023-02-28T09:35:56;0.70;;;0.50;;
50779;SDS011;36748;37.428;-121.972;2023-02-28T09:38:24;1.30;;;0.65;;
50779;SDS011;36748;37.428;-121.972;2023-02-28T09:40:51;1.35;;;0.60;;
50779;SDS011;36748;37.428;-121.972;2023-02-28T09:43:20;1.33;;;0.52;;
50779;SDS011;36748;37.428;-121.972;2023-02-28T09:45:49;1.17;;;0.85;;
50779;SDS011;36748;37.428;-121.972;2023-02-28T09:48:25;1.42;;;0.57;;
50779;SDS011;36748;37.428;-121.972;2023-02-28T09:51:05;0.77;;;0.47;;
50779;SDS011;36748;37.428;-121.972;2023-02-28T09:53:40;1.30;;;0.85;;
50779;SDS011;36748;37.428;-121.972;2023-02-28T09:56:20;1.08;;;0.50;;
50779;SDS011;36748;37.428;-121.972;2023-02-28T09:58:58;0.82;;;0.60;;
50779;SDS011;36748;37.428;-121.972;2023-02-28T10:04:10;0.77;;;0.50;;
50779;SDS011;36748;37.428;-121.972;2023-02-28T10:06:55;0.95;;;0.50;;
50779;SDS011;36748;37.428;-121.972;2023-02-28T10:09:24;1.05;;;0.55;;
50779;SDS011;36748;37.428;-121.972;2023-02-28T10:11:53;0.70;;;0.50;;
50779;SDS011;36748;37.428;-121.972;2023-02-28T10:14:23;1.13;;;0.70;;
50779;SDS011;36748;37.428;-121.972;2023-02-28T10:16:55;1.40;;;0.70;;
50779;SDS011;36748;37.428;-121.972;2023-02-28T10:19:29;0.77;;;0.60;;
50779;SDS011;36748;37.428;-121.972;2023-02-28T10:22:19;1.08;;;0.63;;
50779;SDS011;36748;37.428;-121.972;2023-02-28T10:24:49;0.77;;;0.60;;
50779;SDS011;36748;37.428;-121.972;2023-02-28T10:27:20;1.58;;;0.88;;
50779;SDS011;36748;37.428;-121.972;2023-02-28T10:29:52;0.93;;;0.60;;
50779;SDS011;36748;37.428;-121.972;2023-02-28T10:32:23;0.77;;;0.63;;
50779;SDS011;36748;37.428;-121.972;2023-02-28T10:35:16;1.05;;;0.90;;
50779;SDS011;36748;37.428;-121.972;2023-02-28T10:37:44;0.70;;;0.60;;
50779;SDS011;36748;37.428;-121.972;2023-02-28T10:42:57;0.73;;;0.47;;
50779;SDS011;36748;37.428;-121.972;2023-02-28T10:45:30;1.05;;;0.73;;
50779;SDS011;36748;37.428;-121.972;2023-02-28T10:48:02;0.65;;;0.40;;
50779;SDS011;36748;37.428;-121.972;2023-02-28T10:50:34;1.15;;;0.60;;
50779;SDS011;36748;37.428;-121.972;2023-02-28T10:53:06;1.08;;;0.65;;
50779;SDS011;36748;37.428;-121.972;2023-02-28T10:55:35;1.05;;;0.60;;
50779;SDS011;36748;37.428;-121.972;2023-02-28T10:58:02;1.90;;;1.05;;
50779;SDS011;36748;37.428;-121.972;2023-02-28T11:00:32;1.73;;;0.70;;
50779;SDS011;36748;37.428;-121.972;2023-02-28T11:03:00;1.23;;;0.60;;
50779;SDS011;36748;37.428;-121.972;2023-02-28T11:05:30;0.55;;;0.50;;
50779;SDS011;36748;37.428;-121.972;2023-02-28T11:08:16;1.17;;;0.65;;
50779;SDS011;36748;37.428;-121.972;2023-02-28T11:10:47;1.13;;;0.50;;
50779;SDS011;36748;37.428;-121.972;2023-02-28T11:13:20;1.88;;;0.73;;
50779;SDS011;36748;37.428;-121.972;2023-02-28T11:15:51;1.20;;;0.80;;
50779;SDS011;36748;37.428;-121.972;2023-02-28T11:18:21;2.05;;;0.68;;
50779;SDS011;36748;37.428;-121.972;2023-02-28T11:20:54;2.38;;;0.82;;
50779;SDS011;36748;37.428;-121.972;2023-02-28T11:23:23;1.05;;;0.50;;
50779;SDS011;36748;37.428;-121.972;2023-02-28T11:25:52;0.88;;;0.68;;
50779;SDS011;36748;37.428;-121.972;2023-02-28T11:28:35;1.35;;;0.70;;
50779;SDS011;36748;37.428;-121.972;2023-02-28T11:31:21;0.77;;;0.60;;
50779;SDS011;36748;37.428;-121.972;2023-02-28T11:33:49;1.73;;;0.70;;
50779;SDS011;36748;37.428;-121.972;2023-02-28T11:38:50;0.85;;;0.55;;
50779;SDS011;36748;37.428;-121.972;2023-02-28T11:52:02;1.77;;;0.60;;
50779;SDS011;36748;37.428;-121.972;2023-02-28T11:54:55;1.38;;;0.47;;
50779;SDS011;36748;37.428;-121.972;2023-02-28T11:59:59;0.80;;;0.57;;
50779;SDS011;36748;37.428;-121.972;2023-02-28T12:02:44;0.65;;;0.40;;
50779;SDS011;36748;37.428;-121.972;2023-02-28T12:05:44;1.05;;;0.57;;
50779;SDS011;36748;37.428;-121.972;2023-02-28T12:08:31;0.68;;;0.57;;
50779;SDS011;36748;37.428;-121.972;2023-02-28T12:13:56;1.70;;;0.80;;
50779;SDS011;36748;37.428;-121.972;2023-02-28T12:24:34;0.55;;;0.50;;
50779;SDS011;36748;37.428;-121.972;2023-02-28T12:27:11;1.17;;;0.52;;
50779;SDS011;36748;37.428;-121.972;2023-02-28T12:29:51;0.70;;;0.52;;
50779;SDS011;36748;37.428;-121.972;2023-02-28T12:32:30;0.65;;;0.50;;
50779;SDS011;36748;37.428;-121.972;2023-02-28T12:40:12;1.40;;;0.88;;
50779;SDS011;36748;37.428;-121.972;2023-02-28T12:42:45;0.75;;;0.60;;
50779;SDS011;36748;37.428;-121.972;2023-02-28T12:45:27;1.38;;;0.60;;
50779;SDS011;36748;37.428;-121.972;2023-02-28T12:48:08;1.30;;;0.63;;
50779;SDS011;36748;37.428;-121.972;2023-02-28T12:50:42;1.17;;;0.70;;
50779;SDS011;36748;37.428;-121.972;2023-02-28T12:56:08;1.27;;;0.68;;
50779;SDS011;36748;37.428;-121.972;2023-02-28T12:59:03;1.08;;;0.50;;
50779;SDS011;36748;37.428;-121.972;2023-02-28T13:10:37;0.77;;;0.50;;
50779;SDS011;36748;37.428;-121.972;2023-02-28T13:13:05;2.35;;;0.70;;
50779;SDS011;36748;37.428;-121.972;2023-02-28T13:15:31;1.40;;;0.65;;
50779;SDS011;36748;37.428;-121.972;2023-02-28T13:18:03;1.95;;;0.60;;
50779;SDS011;36748;37.428;-121.972;2023-02-28T13:23:00;0.98;;;0.57;;
50779;SDS011;36748;37.428;-121.972;2023-02-28T13:28:00;1.13;;;0.40;;
50779;SDS011;36748;37.428;-121.972;2023-02-28T13:38:45;1.03;;;0.50;;
50779;SDS011;36748;37.428;-121.972;2023-02-28T13:44:14;0.35;;;0.35;;
50779;SDS011;36748;37.428;-121.972;2023-02-28T13:49:27;0.43;;;0.30;;
50779;SDS011;36748;37.428;-121.972;2023-02-28T13:52:10;0.30;;;0.30;;
50779;SDS011;36748;37.428;-121.972;2023-02-28T14:00:17;0.50;;;0.30;;
50779;SDS011;36748;37.428;-121.972;2023-02-28T14:03:00;0.40;;;0.15;;
50779;SDS011;36748;37.428;-121.972;2023-02-28T14:05:34;0.47;;;0.20;;
50779;SDS011;36748;37.428;-121.972;2023-02-28T14:08:34;0.60;;;0.20;;
50779;SDS011;36748;37.428;-121.972;2023-02-28T14:11:03;0.28;;;0.22;;
50779;SDS011;36748;37.428;-121.972;2023-02-28T14:16:13;0.30;;;0.30;;
50779;SDS011;36748;37.428;-121.972;2023-02-28T14:18:41;0.47;;;0.25;;
50779;SDS011;36748;37.428;-121.972;2023-02-28T14:21:30;0.32;;;0.30;;
50779;SDS011;36748;37.428;-121.972;2023-02-28T14:27:03;0.77;;;0.40;;
50779;SDS011;36748;37.428;-121.972;2023-02-28T14:37:30;0.20;;;0.20;;
50779;SDS011;36748;37.428;-121.972;2023-02-28T14:39:59;0.20;;;0.20;;
50779;SDS011;36748;37.428;-121.972;2023-02-28T14:42:36;0.32;;;0.32;;
50779;SDS011;36748;37.428;-121.972;2023-02-28T14:45:17;0.30;;;0.30;;
50779;SDS011;36748;37.428;-121.972;2023-02-28T14:47:45;0.40;;;0.30;;
50779;SDS011;36748;37.428;-121.972;2023-02-28T14:50:18;0.20;;;0.17;;
50779;SDS011;36748;37.428;-121.972;2023-02-28T14:52:47;0.68;;;0.28;;
50779;SDS011;36748;37.428;-121.972;2023-02-28T14:55:18;0.30;;;0.20;;
50779;SDS011;36748;37.428;-121.972;2023-02-28T14:58:02;0.55;;;0.30;;
50779;SDS011;36748;37.428;-121.972;2023-02-28T15:00:35;0.93;;;0.15;;
50779;SDS011;36748;37.428;-121.972;2023-02-28T15:06:06;0.52;;;0.30;;
50779;SDS011;36748;37.428;-121.972;2023-02-28T15:08:39;0.20;;;0.20;;
50779;SDS011;36748;37.428;-121.972;2023-02-28T15:11:06;0.50;;;0.40;;
50779;SDS011;36748;37.428;-121.972;2023-02-28T15:13:53;0.20;;;0.20;;
50779;SDS011;36748;37.428;-121.972;2023-02-28T15:16:24;0.30;;;0.20;;
50779;SDS011;36748;37.428;-121.972;2023-02-28T15:18:56;0.52;;;0.20;;
50779;SDS011;36748;37.428;-121.972;2023-02-28T15:21:26;0.75;;;0.35;;
50779;SDS011;36748;37.428;-121.972;2023-02-28T15:24:41;1.40;;;0.45;;
50779;SDS011;36748;37.428;-121.972;2023-02-28T15:26:54;0.30;;;0.20;;
50779;SDS011;36748;37.428;-121.972;2023-02-28T15:29:23;0.95;;;0.30;;
50779;SDS011;36748;37.428;-121.972;2023-02-28T15:32:00;1.00;;;0.50;;
50779;SDS011;36748;37.428;-121.972;2023-02-28T15:34:38;0.52;;;0.30;;
50779;SDS011;36748;37.428;-121.972;2023-02-28T15:40:14;0.75;;;0.20;;
50779;SDS011;36748;37.428;-121.972;2023-02-28T15:43:12;0.80;;;0.47;;
50779;SDS011;36748;37.428;-121.972;2023-02-28T15:45:46;0.52;;;0.45;;
50779;SDS011;36748;37.428;-121.972;2023-02-28T15:48:24;0.47;;;0.35;;
50779;SDS011;36748;37.428;-121.972;2023-02-28T15:51:18;0.28;;;0.25;;
50779;SDS011;36748;37.428;-121.972;2023-02-28T15:56:32;0.30;;;0.15;;
50779;SDS011;36748;37.428;-121.972;2023-02-28T15:59:07;1.05;;;0.40;;
50779;SDS011;36748;37.428;-121.972;2023-02-28T16:01:43;0.43;;;0.30;;
50779;SDS011;36748;37.428;-121.972;2023-02-28T16:04:16;0.43;;;0.30;;
50779;SDS011;36748;37.428;-121.972;2023-02-28T16:09:25;0.30;;;0.30;;
50779;SDS011;36748;37.428;-121.972;2023-02-28T16:11:53;0.60;;;0.30;;
50779;SDS011;36748;37.428;-121.972;2023-02-28T16:14:22;0.38;;;0.30;;
50779;SDS011;36748;37.428;-121.972;2023-02-28T16:16:55;0.93;;;0.40;;
50779;SDS011;36748;37.428;-121.972;2023-02-28T16:19:22;0.93;;;0.20;;
50779;SDS011;36748;37.428;-121.972;2023-02-28T16:21:49;0.17;;;0.17;;
50779;SDS011;36748;37.428;-121.972;2023-02-28T16:24:16;0.20;;;0.20;;
50779;SDS011;36748;37.428;-121.972;2023-02-28T16:26:44;0.55;;;0.28;;
50779;SDS011;36748;37.428;-121.972;2023-02-28T16:29:17;0.35;;;0.20;;
50779;SDS011;36748;37.428;-121.972;2023-02-28T16:31:54;0.32;;;0.20;;
50779;SDS011;36748;37.428;-121.972;2023-02-28T16:34:21;0.40;;;0.40;;
50779;SDS011;36748;37.428;-121.972;2023-02-28T16:36:47;1.38;;;0.45;;
50779;SDS011;36748;37.428;-121.972;2023-02-28T16:39:15;0.65;;;0.20;;
50779;SDS011;36748;37.428;-121.972;2023-02-28T16:41:44;0.70;;;0.30;;
50779;SDS011;36748;37.428;-121.972;2023-02-28T16:44:31;0.20;;;0.20;;